createdAt,value
2018-12-06T00:00:17.441Z,20.82
2018-12-06T00:02:44.904Z,19.40
2018-12-06T00:05:12.362Z,20.48
2018-12-06T00:07:43.752Z,19.00
2018-12-06T00:10:11.269Z,19.32
2018-12-06T00:12:38.749Z,19.40
2018-12-06T00:15:18.068Z,18.52
2018-12-06T00:17:45.533Z,19.52
2018-12-06T00:20:13.019Z,18.77
2018-12-06T00:22:40.509Z,18.92
2018-12-06T00:25:08.053Z,17.70
2018-12-06T00:27:35.536Z,17.75
2018-12-06T00:30:14.853Z,18.27
2018-12-06T00:32:42.365Z,18.12
2018-12-06T00:35:09.804Z,16.23
2018-12-06T00:37:37.307Z,18.15
2018-12-06T00:40:04.817Z,17.10
2018-12-06T00:42:32.456Z,17.85
2018-12-06T00:45:00.784Z,18.15
2018-12-06T00:47:28.289Z,17.07
2018-12-06T00:49:55.827Z,17.65
2018-12-06T00:52:23.321Z,16.40
2018-12-06T00:54:50.853Z,16.97
2018-12-06T00:57:18.405Z,15.78
2018-12-06T00:59:45.885Z,18.00
2018-12-06T01:02:13.352Z,17.95
2018-12-06T01:04:40.860Z,17.05
2018-12-06T01:07:08.306Z,18.60
2018-12-06T01:09:35.853Z,15.83
2018-12-06T01:12:03.593Z,17.73
2018-12-06T01:14:36.755Z,19.55
2018-12-06T01:17:04.213Z,18.32
2018-12-06T01:19:31.808Z,15.10
2018-12-06T01:21:59.350Z,16.20
2018-12-06T01:24:26.882Z,14.90
2018-12-06T01:26:54.309Z,16.00
2018-12-06T01:29:21.757Z,15.30
2018-12-06T01:31:49.267Z,16.05
2018-12-06T01:34:16.729Z,17.10
2018-12-06T01:36:44.221Z,15.25
2018-12-06T01:39:11.670Z,17.10
2018-12-06T01:41:39.126Z,17.20
2018-12-06T01:44:06.585Z,16.67
2018-12-06T01:46:34.035Z,16.50
2018-12-06T01:49:01.523Z,17.00
2018-12-06T01:51:29.008Z,17.73
2018-12-06T01:53:56.482Z,16.12
2018-12-06T01:56:23.933Z,16.52
2018-12-06T01:58:51.389Z,15.60
2018-12-06T02:01:18.882Z,17.17
2018-12-06T02:03:46.343Z,15.85
2018-12-06T02:06:13.785Z,16.85
2018-12-06T02:08:41.259Z,16.93
2018-12-06T02:11:08.694Z,16.48
2018-12-06T02:13:36.213Z,18.07
2018-12-06T02:16:03.674Z,16.70
2018-12-06T02:18:31.122Z,18.25
2018-12-06T02:20:58.579Z,17.27
2018-12-06T02:23:26.013Z,17.12
2018-12-06T02:25:53.492Z,17.95
2018-12-06T02:28:20.924Z,17.57
2018-12-06T02:30:48.380Z,17.60
2018-12-06T02:33:15.842Z,17.75
2018-12-06T02:35:43.297Z,19.85
2018-12-06T02:38:10.741Z,19.10
2018-12-06T02:40:38.193Z,18.30
2018-12-06T02:43:05.677Z,19.05
2018-12-06T02:45:33.147Z,18.60
2018-12-06T02:48:00.627Z,18.42
2018-12-06T02:50:28.122Z,18.98
2018-12-06T02:52:55.556Z,16.25
2018-12-06T02:55:23.002Z,18.90
2018-12-06T02:57:50.443Z,15.83
2018-12-06T03:00:17.895Z,16.62
2018-12-06T03:02:45.361Z,20.08
2018-12-06T03:05:12.882Z,15.32
2018-12-06T03:07:40.320Z,17.42
2018-12-06T03:10:07.878Z,16.77
2018-12-06T03:12:35.333Z,17.50
2018-12-06T03:15:03.285Z,16.95
2018-12-06T03:17:30.739Z,16.97
2018-12-06T03:19:58.214Z,17.85
2018-12-06T03:22:25.685Z,17.60
2018-12-06T03:24:53.146Z,16.05
2018-12-06T03:27:20.598Z,17.98
2018-12-06T03:29:48.050Z,17.12
2018-12-06T03:32:15.519Z,17.00
2018-12-06T03:34:42.962Z,16.97
2018-12-06T03:37:10.459Z,17.77
2018-12-06T03:39:37.893Z,17.05
2018-12-06T03:42:06.328Z,17.85
2018-12-06T03:44:35.718Z,17.60
2018-12-06T03:47:04.361Z,16.48
2018-12-06T03:49:31.959Z,15.25
2018-12-06T03:51:59.438Z,16.12
2018-12-06T03:54:26.909Z,17.55
2018-12-06T03:56:54.479Z,16.87
2018-12-06T03:59:21.947Z,16.48
2018-12-06T04:01:49.457Z,14.80
2018-12-06T04:04:17.088Z,14.85
2018-12-06T04:06:44.663Z,15.40
2018-12-06T04:09:12.131Z,14.40
2018-12-06T04:11:39.579Z,12.98
2018-12-06T04:14:07.040Z,12.65
2018-12-06T04:16:34.501Z,15.30
2018-12-06T04:19:01.954Z,13.58
2018-12-06T04:21:29.418Z,15.50
2018-12-06T04:23:56.868Z,13.68
2018-12-06T04:26:24.348Z,14.28
2018-12-06T04:28:51.790Z,14.10
2018-12-06T04:31:19.258Z,14.55
2018-12-06T04:33:46.695Z,15.13
2018-12-06T04:36:14.149Z,14.58
2018-12-06T04:38:41.585Z,14.65
2018-12-06T04:41:09.087Z,15.75
2018-12-06T04:43:36.521Z,14.90
2018-12-06T04:46:04.030Z,14.30
2018-12-06T04:48:31.482Z,15.83
2018-12-06T04:50:58.940Z,16.30
2018-12-06T04:53:26.397Z,16.45
2018-12-06T04:55:53.885Z,13.88
2018-12-06T04:58:21.338Z,12.68
2018-12-06T05:00:48.784Z,14.80
2018-12-06T05:03:16.229Z,12.90
2018-12-06T05:05:43.696Z,13.00
2018-12-06T05:08:11.200Z,12.78
2018-12-06T05:10:38.656Z,12.93
2018-12-06T05:13:06.154Z,13.35
2018-12-06T05:15:33.615Z,12.85
2018-12-06T05:18:01.717Z,13.60
2018-12-06T05:20:29.169Z,15.20
2018-12-06T05:22:56.613Z,13.08
2018-12-06T05:25:24.069Z,13.90
2018-12-06T05:27:51.525Z,14.07
2018-12-06T05:30:18.985Z,14.73
2018-12-06T05:32:46.437Z,14.63
2018-12-06T05:35:13.894Z,15.20
2018-12-06T05:37:41.362Z,14.40
2018-12-06T05:40:08.856Z,13.50
2018-12-06T05:42:36.309Z,14.98
2018-12-06T05:45:04.233Z,13.98
2018-12-06T05:47:31.703Z,13.98
2018-12-06T05:49:59.179Z,15.20
2018-12-06T05:52:26.669Z,12.90
2018-12-06T05:54:54.220Z,17.15
2018-12-06T05:57:21.678Z,14.78
2018-12-06T05:59:49.177Z,15.48
2018-12-06T06:02:16.828Z,16.37
2018-12-06T06:04:44.367Z,13.48
2018-12-06T06:07:22.237Z,13.25
2018-12-06T06:09:49.726Z,13.80
2018-12-06T06:12:17.228Z,14.55
2018-12-06T06:14:44.726Z,14.80
2018-12-06T06:17:12.225Z,14.47
2018-12-06T06:19:39.743Z,15.40
2018-12-06T06:22:07.204Z,15.40
2018-12-06T06:24:34.656Z,13.72
2018-12-06T06:27:02.661Z,15.50
2018-12-06T06:29:30.129Z,13.80
2018-12-06T06:31:57.577Z,15.58
2018-12-06T06:34:25.035Z,14.68
2018-12-06T06:36:52.492Z,13.93
2018-12-06T06:39:20.063Z,14.13
2018-12-06T06:41:47.513Z,15.10
2018-12-06T06:44:14.984Z,14.80
2018-12-06T06:46:42.444Z,13.90
2018-12-06T06:49:13.859Z,14.93
2018-12-06T06:51:39.382Z,14.05
2018-12-06T06:54:06.855Z,14.80
2018-12-06T06:56:34.302Z,15.38
2018-12-06T06:59:01.874Z,16.15
2018-12-06T07:01:29.362Z,17.07
2018-12-06T07:03:56.829Z,12.93
2018-12-06T07:06:24.295Z,14.00
2018-12-06T07:08:51.765Z,12.28
2018-12-06T07:11:19.249Z,13.80
2018-12-06T07:13:46.911Z,13.15
2018-12-06T07:16:14.356Z,14.15
2018-12-06T07:18:41.818Z,12.93
2018-12-06T07:21:09.249Z,13.40
2018-12-06T07:23:36.789Z,14.70
2018-12-06T07:26:04.468Z,15.83
2018-12-06T07:28:31.930Z,14.80
2018-12-06T07:30:59.412Z,12.82
2018-12-06T07:33:26.872Z,13.03
2018-12-06T07:35:54.568Z,11.33
2018-12-06T07:38:22.337Z,12.18
2018-12-06T07:40:49.991Z,12.65
2018-12-06T07:43:17.464Z,13.00
2018-12-06T07:45:45.684Z,12.63
2018-12-06T07:48:13.149Z,11.33
2018-12-06T07:50:40.585Z,11.93
2018-12-06T07:53:08.129Z,11.90
2018-12-06T07:55:35.672Z,11.33
2018-12-06T07:58:03.177Z,10.85
2018-12-06T08:00:30.656Z,11.60
2018-12-06T08:02:58.223Z,10.70
2018-12-06T08:05:25.705Z,11.55
2018-12-06T08:07:53.156Z,11.22
2018-12-06T08:10:20.637Z,10.80
2018-12-06T08:12:48.203Z,11.10
2018-12-06T08:15:15.700Z,11.48
2018-12-06T08:17:43.184Z,11.75
2018-12-06T08:20:10.651Z,11.68
2018-12-06T08:22:38.125Z,11.53
2018-12-06T08:25:05.641Z,12.50
2018-12-06T08:27:33.212Z,12.85
2018-12-06T08:30:00.716Z,12.30
2018-12-06T08:32:28.187Z,10.85
2018-12-06T08:34:55.680Z,12.53
2018-12-06T08:37:23.109Z,14.25
2018-12-06T08:39:50.565Z,10.05
2018-12-06T08:42:18.060Z,12.95
2018-12-06T08:44:45.839Z,13.43
2018-12-06T08:47:13.285Z,12.75
2018-12-06T08:49:42.297Z,11.68
2018-12-06T08:52:15.524Z,13.25
2018-12-06T08:54:43.103Z,12.50
2018-12-06T08:57:10.704Z,13.15
2018-12-06T08:59:38.239Z,9.85
2018-12-06T09:02:06.188Z,10.58
2018-12-06T09:04:33.650Z,11.43
2018-12-06T09:07:01.086Z,12.05
2018-12-06T09:09:28.539Z,10.20
2018-12-06T09:11:56.086Z,10.82
2018-12-06T09:14:23.522Z,10.28
2018-12-06T09:16:51.036Z,10.60
2018-12-06T09:19:18.648Z,12.80
2018-12-06T09:21:46.073Z,10.98
2018-12-06T09:24:13.547Z,11.12
2018-12-06T09:26:41.027Z,12.37
2018-12-06T09:29:08.489Z,10.78
2018-12-06T09:31:35.929Z,10.38
2018-12-06T09:34:05.791Z,10.35
2018-12-06T09:36:33.318Z,10.95
2018-12-06T09:39:00.859Z,10.80
2018-12-06T09:41:29.313Z,9.28
2018-12-06T09:43:56.769Z,10.68
2018-12-06T09:46:24.305Z,10.10
2018-12-06T09:48:51.749Z,9.75
2018-12-06T09:51:19.225Z,9.80
2018-12-06T09:53:46.679Z,9.13
2018-12-06T09:56:14.127Z,9.98
2018-12-06T09:58:41.603Z,10.65
2018-12-06T10:01:09.113Z,10.45
2018-12-06T10:03:36.563Z,10.25
2018-12-06T10:06:04.083Z,11.33
2018-12-06T10:08:31.604Z,8.90
2018-12-06T10:10:59.087Z,9.33
2018-12-06T10:13:26.560Z,9.83
2018-12-06T10:15:53.997Z,9.28
2018-12-06T10:18:21.667Z,9.10
2018-12-06T10:20:49.143Z,9.33
2018-12-06T10:23:16.612Z,7.75
2018-12-06T10:25:44.098Z,8.83
2018-12-06T10:28:11.626Z,9.05
2018-12-06T10:30:39.081Z,9.88
2018-12-06T10:33:06.551Z,9.85
2018-12-06T10:35:33.997Z,8.70
2018-12-06T10:38:01.450Z,8.73
2018-12-06T10:40:28.899Z,9.55
2018-12-06T10:42:56.351Z,8.58
2018-12-06T10:45:23.820Z,10.18
2018-12-06T10:47:51.272Z,8.58
2018-12-06T10:50:18.757Z,8.63
2018-12-06T10:52:46.307Z,9.85
2018-12-06T10:55:13.905Z,8.83
2018-12-06T10:57:41.449Z,8.08
2018-12-06T11:00:11.037Z,9.03
2018-12-06T11:02:44.160Z,9.38
2018-12-06T11:05:11.652Z,9.73
2018-12-06T11:07:39.250Z,9.15
2018-12-06T11:10:07.147Z,9.20
2018-12-06T11:12:34.603Z,9.90
2018-12-06T11:15:02.070Z,8.75
2018-12-06T11:17:29.508Z,9.63
2018-12-06T11:19:56.965Z,9.63
2018-12-06T11:22:24.433Z,9.95
2018-12-06T11:24:51.901Z,10.10
2018-12-06T11:27:19.345Z,9.00
2018-12-06T11:29:46.871Z,9.83
2018-12-06T11:32:14.393Z,10.78
2018-12-06T11:34:41.832Z,10.93
2018-12-06T11:37:09.418Z,9.63
2018-12-06T11:39:36.873Z,9.60
2018-12-06T11:42:04.329Z,9.60
2018-12-06T11:44:31.782Z,10.78
2018-12-06T11:46:59.277Z,10.33
2018-12-06T11:49:26.721Z,10.10
2018-12-06T11:51:54.224Z,8.10
2018-12-06T11:54:21.669Z,8.23
2018-12-06T11:56:49.140Z,9.27
2018-12-06T11:59:16.601Z,9.77
2018-12-06T12:01:44.061Z,7.50
2018-12-06T12:04:11.508Z,8.57
2018-12-06T12:06:38.981Z,8.47
2018-12-06T12:09:07.005Z,7.70
2018-12-06T12:11:34.464Z,7.80
2018-12-06T12:14:02.013Z,8.75
2018-12-06T12:16:29.457Z,7.43
2018-12-06T12:18:56.892Z,7.53
2018-12-06T12:21:24.341Z,7.57
2018-12-06T12:23:51.785Z,6.50
2018-12-06T12:26:19.301Z,6.63
2018-12-06T12:28:46.760Z,7.53
2018-12-06T12:31:14.313Z,8.33
2018-12-06T12:33:41.757Z,5.93
2018-12-06T12:36:09.209Z,6.78
2018-12-06T12:38:36.737Z,6.83
2018-12-06T12:41:04.182Z,7.33
2018-12-06T12:43:31.639Z,6.43
2018-12-06T12:45:59.102Z,5.17
2018-12-06T12:48:26.560Z,6.47
2018-12-06T12:50:54.005Z,5.87
2018-12-06T12:53:23.021Z,5.33
2018-12-06T12:55:50.678Z,5.30
2018-12-06T12:58:18.109Z,6.07
2018-12-06T13:00:45.721Z,6.20
2018-12-06T13:03:13.193Z,5.10
2018-12-06T13:05:40.672Z,5.50
2018-12-06T13:08:08.124Z,5.42
2018-12-06T13:10:35.569Z,4.72
2018-12-06T13:13:03.023Z,5.17
2018-12-06T13:15:30.626Z,5.60
2018-12-06T13:17:58.069Z,5.43
2018-12-06T13:20:25.528Z,5.65
2018-12-06T13:22:52.980Z,4.55
2018-12-06T13:25:20.473Z,4.85
2018-12-06T13:27:47.976Z,5.50
2018-12-06T13:30:15.469Z,5.92
2018-12-06T13:32:42.990Z,5.58
2018-12-06T13:35:10.469Z,5.90
2018-12-06T13:37:37.925Z,6.70
2018-12-06T13:40:05.524Z,5.20
2018-12-06T13:42:32.970Z,5.00
2018-12-06T13:45:00.420Z,5.72
2018-12-06T13:47:27.875Z,4.37
2018-12-06T13:49:55.353Z,4.70
2018-12-06T13:52:22.797Z,5.07
2018-12-06T13:54:50.249Z,5.03
2018-12-06T13:57:19.739Z,4.83
2018-12-06T13:59:47.161Z,6.70
2018-12-06T14:02:14.605Z,6.87
2018-12-06T14:04:42.056Z,5.42
2018-12-06T14:07:09.513Z,4.70
2018-12-06T14:09:36.953Z,4.85
2018-12-06T14:12:04.522Z,4.50
2018-12-06T14:14:31.975Z,4.20
2018-12-06T14:16:59.434Z,4.62
2018-12-06T14:19:26.889Z,5.12
2018-12-06T14:21:54.382Z,4.40
2018-12-06T14:24:21.835Z,4.40
2018-12-06T14:26:49.315Z,3.58
2018-12-06T14:29:16.941Z,5.20
2018-12-06T14:31:44.513Z,4.10
2018-12-06T14:34:11.957Z,5.37
2018-12-06T14:36:39.448Z,4.17
2018-12-06T14:39:07.817Z,4.62
2018-12-06T14:41:35.271Z,4.35
2018-12-06T14:44:02.763Z,4.80
2018-12-06T14:46:30.225Z,4.03
2018-12-06T14:48:57.694Z,5.10
2018-12-06T14:51:25.145Z,4.45
2018-12-06T14:53:52.601Z,5.00
2018-12-06T14:56:20.037Z,4.53
2018-12-06T14:58:47.565Z,4.60
2018-12-06T15:01:15.027Z,5.08
2018-12-06T15:03:42.483Z,5.05
2018-12-06T15:06:09.965Z,5.45
2018-12-06T15:08:37.436Z,5.45
2018-12-06T15:13:56.781Z,4.85
2018-12-06T15:16:24.239Z,4.10
2018-12-06T15:18:51.745Z,4.50
2018-12-06T15:21:19.242Z,3.75
2018-12-06T15:23:46.775Z,4.42
2018-12-06T15:26:14.240Z,4.25
2018-12-06T15:28:41.845Z,4.10
2018-12-06T15:31:09.313Z,4.70
2018-12-06T15:33:36.767Z,4.35
2018-12-06T15:36:04.253Z,5.03
2018-12-06T15:38:31.701Z,4.95
2018-12-06T15:40:59.192Z,5.47
2018-12-06T15:43:26.693Z,4.90
2018-12-06T15:45:54.197Z,4.45
2018-12-06T15:48:21.679Z,4.33
2018-12-06T15:50:49.213Z,4.37
2018-12-06T15:53:16.676Z,5.10
2018-12-06T15:55:44.130Z,5.55
2018-12-06T15:58:11.583Z,4.75
2018-12-06T16:00:39.931Z,4.92
2018-12-06T16:03:07.579Z,4.58
2018-12-06T16:05:35.024Z,5.53
2018-12-06T16:08:02.587Z,5.05
2018-12-06T16:10:30.134Z,5.60
2018-12-06T16:12:57.632Z,5.30
2018-12-06T16:15:25.081Z,5.95
2018-12-06T16:17:52.571Z,5.45
2018-12-06T16:20:20.016Z,6.35
2018-12-06T16:22:47.466Z,6.75
2018-12-06T16:25:14.930Z,6.35
2018-12-06T16:27:42.396Z,6.58
2018-12-06T16:30:09.918Z,5.45
2018-12-06T16:32:37.361Z,5.55
2018-12-06T16:35:05.463Z,6.67
2018-12-06T16:37:33.003Z,6.53
2018-12-06T16:40:00.649Z,6.22
2018-12-06T16:42:28.109Z,7.20
2018-12-06T16:44:55.565Z,7.28
2018-12-06T16:47:23.069Z,8.10
2018-12-06T16:49:50.607Z,6.90
2018-12-06T16:52:18.202Z,6.83
2018-12-06T16:54:45.642Z,7.15
2018-12-06T16:57:13.114Z,6.00
2018-12-06T16:59:40.571Z,6.70
2018-12-06T17:02:08.095Z,5.80
2018-12-06T17:04:35.600Z,5.15
2018-12-06T17:07:03.089Z,6.00
2018-12-06T17:09:30.964Z,5.45
2018-12-06T17:11:58.401Z,5.10
2018-12-06T17:14:25.869Z,5.58
2018-12-06T17:16:53.373Z,5.80
2018-12-06T17:19:20.833Z,6.67
2018-12-06T17:21:48.261Z,6.53
2018-12-06T17:24:16.620Z,7.08
2018-12-06T17:26:44.443Z,6.25
2018-12-06T17:29:11.885Z,6.22
2018-12-06T17:31:39.416Z,5.92
2018-12-06T17:34:06.978Z,6.10
2018-12-06T17:36:34.436Z,5.62
2018-12-06T17:39:01.922Z,6.12
2018-12-06T17:41:29.345Z,6.28
2018-12-06T17:43:56.792Z,6.12
2018-12-06T17:46:24.313Z,5.95
2018-12-06T17:48:51.790Z,6.05
2018-12-06T17:51:19.265Z,6.03
2018-12-06T17:53:52.126Z,6.70
2018-12-06T17:56:16.230Z,6.40
2018-12-06T17:58:43.697Z,6.42
2018-12-06T18:01:11.144Z,6.58
2018-12-06T18:03:38.617Z,6.97
2018-12-06T18:06:06.110Z,5.47
2018-12-06T18:08:33.596Z,6.12
2018-12-06T18:11:01.077Z,5.40
2018-12-06T18:13:28.536Z,4.95
2018-12-06T18:15:56.060Z,6.65
2018-12-06T18:18:23.512Z,6.00
2018-12-06T18:20:51.018Z,13.28
2018-12-06T18:23:18.491Z,6.97
2018-12-06T18:25:46.018Z,7.70
2018-12-06T18:28:13.591Z,6.25
2018-12-06T18:30:41.057Z,6.03
2018-12-06T18:33:08.493Z,6.90
2018-12-06T18:35:35.947Z,6.90
2018-12-06T18:38:03.437Z,5.85
2018-12-06T18:40:30.884Z,5.95
2018-12-06T18:42:58.331Z,5.40
2018-12-06T18:45:25.821Z,5.65
2018-12-06T18:47:53.306Z,5.60
2018-12-06T18:50:20.740Z,5.55
2018-12-06T18:52:48.241Z,5.30
2018-12-06T18:55:15.691Z,6.10
2018-12-06T18:57:43.212Z,6.15
2018-12-06T19:00:11.105Z,5.50
2018-12-06T19:02:38.553Z,6.17
2018-12-06T19:05:06.148Z,6.17
2018-12-06T19:07:33.608Z,6.12
2018-12-06T19:10:01.155Z,6.50
2018-12-06T19:12:28.624Z,5.40
2018-12-06T19:14:56.090Z,5.35
2018-12-06T19:17:23.547Z,5.80
2018-12-06T19:19:51.045Z,6.90
2018-12-06T19:22:18.514Z,5.92
2018-12-06T19:24:46.054Z,6.37
2018-12-06T19:27:13.531Z,6.85
2018-12-06T19:29:41.231Z,7.22
2018-12-06T19:32:08.769Z,7.53
2018-12-06T19:34:36.564Z,7.35
2018-12-06T19:37:04.160Z,6.72
2018-12-06T19:39:31.622Z,7.10
2018-12-06T19:41:59.188Z,7.95
2018-12-06T19:44:26.738Z,8.05
2018-12-06T19:46:54.325Z,8.05
2018-12-06T19:49:21.988Z,8.00
2018-12-06T19:51:49.524Z,7.08
2018-12-06T19:54:17.040Z,7.05
2018-12-06T19:56:44.514Z,7.90
2018-12-06T19:59:12.039Z,7.08
2018-12-06T20:01:39.490Z,8.33
2018-12-06T20:04:07.007Z,8.03
2018-12-06T20:06:34.466Z,7.17
2018-12-06T20:09:01.952Z,8.03
2018-12-06T20:11:29.525Z,6.55
2018-12-06T20:13:57.042Z,6.78
2018-12-06T20:16:24.546Z,7.55
2018-12-06T20:18:52.273Z,7.92
2018-12-06T20:21:20.652Z,7.17
2018-12-06T20:23:48.177Z,12.33
2018-12-06T20:26:15.661Z,6.58
2018-12-06T20:28:43.104Z,7.87
2018-12-06T20:31:48.908Z,5.90
2018-12-06T20:34:16.364Z,6.08
2018-12-06T20:36:43.824Z,6.70
2018-12-06T20:39:11.288Z,5.92
2018-12-06T20:41:38.742Z,5.30
2018-12-06T20:44:06.197Z,5.67
2018-12-06T20:46:33.741Z,6.00
2018-12-06T20:49:01.226Z,6.12
2018-12-06T20:51:28.719Z,5.35
2018-12-06T20:53:56.259Z,5.20
2018-12-06T20:56:23.712Z,5.55
2018-12-06T20:58:51.171Z,4.78
2018-12-06T21:01:18.660Z,4.65
2018-12-06T21:03:46.147Z,5.25
2018-12-06T21:06:13.683Z,4.80
2018-12-06T21:08:41.143Z,5.83
2018-12-06T21:11:08.586Z,6.55
2018-12-06T21:13:36.046Z,5.62
2018-12-06T21:16:03.571Z,5.58
2018-12-06T21:18:31.176Z,4.47
2018-12-06T21:20:58.653Z,5.37
2018-12-06T21:23:26.157Z,5.05
2018-12-06T21:25:55.010Z,4.85
2018-12-06T21:28:22.481Z,4.25
2018-12-06T21:30:50.021Z,4.47
2018-12-06T21:33:17.512Z,4.30
2018-12-06T21:35:45.020Z,5.00
2018-12-06T21:38:12.516Z,4.95
2018-12-06T21:40:40.904Z,4.37
2018-12-06T21:43:08.451Z,5.80
2018-12-06T21:45:35.980Z,5.55
2018-12-06T21:48:03.546Z,5.40
2018-12-06T21:50:30.990Z,5.80
2018-12-06T21:52:58.749Z,6.90
2018-12-06T21:55:26.206Z,6.10
2018-12-06T21:57:53.818Z,5.33
2018-12-06T22:00:21.349Z,6.42
2018-12-06T22:02:48.948Z,5.95
2018-12-06T22:05:16.421Z,5.53
2018-12-06T22:07:43.932Z,5.55
2018-12-06T22:10:11.404Z,6.35
2018-12-06T22:12:39.081Z,5.47
2018-12-06T22:15:06.654Z,5.87
2018-12-06T22:17:34.145Z,4.75
2018-12-06T22:20:01.731Z,5.55
2018-12-06T22:22:29.205Z,6.25
2018-12-06T22:24:56.670Z,5.40
2018-12-06T22:27:24.171Z,5.33
2018-12-06T22:29:51.751Z,5.67
2018-12-06T22:32:19.408Z,6.60
2018-12-06T22:34:46.861Z,6.70
2018-12-06T22:37:14.318Z,5.05
2018-12-06T22:39:41.793Z,4.80
2018-12-06T22:42:09.237Z,4.60
2018-12-06T22:44:37.477Z,5.28
2018-12-06T22:47:05.052Z,4.05
2018-12-06T22:49:32.513Z,4.70
2018-12-06T22:51:59.990Z,4.70
2018-12-06T22:54:27.441Z,4.83
2018-12-06T22:56:55.010Z,4.60
2018-12-06T22:59:22.510Z,4.57
2018-12-06T23:01:50.029Z,5.22
2018-12-06T23:04:17.562Z,4.40
2018-12-06T23:06:45.037Z,3.95
2018-12-06T23:09:12.626Z,3.70
2018-12-06T23:11:40.149Z,4.37
2018-12-06T23:14:07.580Z,3.92
2018-12-06T23:16:35.109Z,4.77
2018-12-06T23:19:02.654Z,3.90
2018-12-06T23:21:30.571Z,3.70
2018-12-06T23:23:58.183Z,3.67
2018-12-06T23:26:25.720Z,4.42
2018-12-06T23:28:53.182Z,3.42
2018-12-06T23:31:20.685Z,4.22
2018-12-06T23:33:48.169Z,4.60
2018-12-06T23:36:15.692Z,4.33
2018-12-06T23:38:43.178Z,4.12
2018-12-06T23:41:10.734Z,4.53
2018-12-06T23:43:38.190Z,3.40
2018-12-06T23:46:05.667Z,3.77
2018-12-06T23:48:33.166Z,3.60
2018-12-06T23:51:12.601Z,4.22
2018-12-06T23:53:40.037Z,4.00
2018-12-06T23:56:07.532Z,3.50
2018-12-06T23:58:34.997Z,4.10
